F/V Guevellezed 2 — FGE8986 — position and weather

sailwx.info

Track history (hours):
 
Tides and Currents Weather Stations Pressure Air Temp Water Temp Dewpoint Dewpoint Depression Visibility Wind Speed Wind Dir Waves Ship Positions

F/V Guevellezed 2

Last reported at 2018-Jan-18 10:10 UTC. Time now 2018-Jan-22 06:42 UTC.
Position N 47°44' W 003°22'.

Length 12 m.

Type: Fishing. MMSI: 227686910.

Date/timePositionNaut miles runAvg speedWind from/ knotsBaromVisibWave heightAir tempDewpointWater temp
2018-Jan-18 10:10N 47°44' W 003°22'0 0.0
2018-Jan-18 09:58N 47°44' W 003°22'0 0.0
2018-Jan-18 09:29N 47°44' W 003°22'  
2018-Jan-12 04:24N 47°24' W 003°18'3 7.6
2018-Jan-12 04:00N 47°27' W 003°18'4 7.7
2018-Jan-12 03:30N 47°31' W 003°19'4 7.9
2018-Jan-12 03:00N 47°35' W 003°20'4 8.0
2018-Jan-12 02:30N 47°38' W 003°22'4 8.4
2018-Jan-12 02:00N 47°43' W 003°22'1 0.1
2018-Jan-11 16:51N 47°44' W 003°22'0 0.0
2018-Jan-11 16:30N 47°44' W 003°22'0 0.0
2018-Jan-11 16:00N 47°44' W 003°22'0 0.0
2018-Jan-11 15:30N 47°44' W 003°22'0 0.1
2018-Jan-11 14:57N 47°44' W 003°22'3 6.3
2018-Jan-11 14:29N 47°41' W 003°22'4 8.1
2018-Jan-11 14:00N 47°37' W 003°21'11 1.1
2018-Jan-11 04:11N 47°26' W 003°20'1 7.4
2018-Jan-11 04:00N 47°28' W 003°20'4 7.6
2018-Jan-11 03:29N 47°32' W 003°21'4 7.7
2018-Jan-11 03:00N 47°35' W 003°21'4 7.7
2018-Jan-11 02:29N 47°39' W 003°22'4 7.7
2018-Jan-11 02:00N 47°43' W 003°22'1 0.1
2018-Jan-10 15:25N 47°44' W 003°22'0 0.3
2018-Jan-10 15:00N 47°44' W 003°22'4 7.7
2018-Jan-10 14:30N 47°40' W 003°22'4 8.5
2018-Jan-10 14:00N 47°36' W 003°21'4 8.5
2018-Jan-10 13:30N 47°32' W 003°19'4 8.4
2018-Jan-10 13:00N 47°27' W 003°18'4 0.4
2018-Jan-10 04:32N 47°24' W 003°18'0 7.6
2018-Jan-10 04:28N 47°24' W 003°18'4 7.5
2018-Jan-10 04:00N 47°28' W 003°18'3 7.1
2018-Jan-10 03:30N 47°31' W 003°19'4 7.5
2018-Jan-10 03:00N 47°35' W 003°20'4 7.6
2018-Jan-10 02:30N 47°38' W 003°22'4 8.0
2018-Jan-10 02:00N 47°42' W 003°22'1 0.1
2018-Jan-09 13:31N 47°44' W 003°22'0 0.0
2018-Jan-09 13:28N 47°44' W 003°22'0 0.9
2018-Jan-09 13:00N 47°43' W 003°22'4 7.9
2018-Jan-09 12:30N 47°39' W 003°22'4 8.6
2018-Jan-09 12:00N 47°35' W 003°20'4 8.4
2018-Jan-09 11:30N 47°31' W 003°19'4 8.5
2018-Jan-09 11:00N 47°27' W 003°18'3 0.4
2018-Jan-09 04:38N 47°24' W 003°17'1 7.4
2018-Jan-09 04:30N 47°25' W 003°18'4 7.2
2018-Jan-09 04:00N 47°29' W 003°19'3 6.9
2018-Jan-09 03:30N 47°32' W 003°20'4 7.5
2018-Jan-09 03:00N 47°36' W 003°21'4 7.6
2018-Jan-09 02:30N 47°40' W 003°22'4 8.0
2018-Jan-09 02:00N 47°44' W 003°22'  
Track history (hours):
 
Tides and Currents Weather Stations Pressure Air Temp Water Temp Dewpoint Dewpoint Depression Visibility Wind Speed Wind Dir Waves Ship Positions

F/V Guevellezed 2

Last reported at 2018-Jan-18 10:10 UTC. Time now 2018-Jan-22 06:42 UTC.
Position N 47°44' W 003°22'.

Length 12 m.

Type: Fishing. MMSI: 227686910.

Date/timePositionNaut miles runAvg speedWind from/ knotsBaromVisibWave heightAir tempDewpointWater temp
2018-Jan-18 10:10N 47°44' W 003°22'0 0.0
2018-Jan-18 09:58N 47°44' W 003°22'0 0.0
2018-Jan-18 09:29N 47°44' W 003°22'  
2018-Jan-12 04:24N 47°24' W 003°18'3 7.6
2018-Jan-12 04:00N 47°27' W 003°18'4 7.7
2018-Jan-12 03:30N 47°31' W 003°19'4 7.9
2018-Jan-12 03:00N 47°35' W 003°20'4 8.0
2018-Jan-12 02:30N 47°38' W 003°22'4 8.4
2018-Jan-12 02:00N 47°43' W 003°22'1 0.1
2018-Jan-11 16:51N 47°44' W 003°22'0 0.0
2018-Jan-11 16:30N 47°44' W 003°22'0 0.0
2018-Jan-11 16:00N 47°44' W 003°22'0 0.0
2018-Jan-11 15:30N 47°44' W 003°22'0 0.1
2018-Jan-11 14:57N 47°44' W 003°22'3 6.3
2018-Jan-11 14:29N 47°41' W 003°22'4 8.1
2018-Jan-11 14:00N 47°37' W 003°21'11 1.1
2018-Jan-11 04:11N 47°26' W 003°20'1 7.4
2018-Jan-11 04:00N 47°28' W 003°20'4 7.6
2018-Jan-11 03:29N 47°32' W 003°21'4 7.7
2018-Jan-11 03:00N 47°35' W 003°21'4 7.7
2018-Jan-11 02:29N 47°39' W 003°22'4 7.7
2018-Jan-11 02:00N 47°43' W 003°22'1 0.1
2018-Jan-10 15:25N 47°44' W 003°22'0 0.3
2018-Jan-10 15:00N 47°44' W 003°22'4 7.7
2018-Jan-10 14:30N 47°40' W 003°22'4 8.5
2018-Jan-10 14:00N 47°36' W 003°21'4 8.5
2018-Jan-10 13:30N 47°32' W 003°19'4 8.4
2018-Jan-10 13:00N 47°27' W 003°18'4 0.4
2018-Jan-10 04:32N 47°24' W 003°18'0 7.6
2018-Jan-10 04:28N 47°24' W 003°18'4 7.5
2018-Jan-10 04:00N 47°28' W 003°18'3 7.1
2018-Jan-10 03:30N 47°31' W 003°19'4 7.5
2018-Jan-10 03:00N 47°35' W 003°20'4 7.6
2018-Jan-10 02:30N 47°38' W 003°22'4 8.0
2018-Jan-10 02:00N 47°42' W 003°22'1 0.1
2018-Jan-09 13:31N 47°44' W 003°22'0 0.0
2018-Jan-09 13:28N 47°44' W 003°22'0 0.9
2018-Jan-09 13:00N 47°43' W 003°22'4 7.9
2018-Jan-09 12:30N 47°39' W 003°22'4 8.6
2018-Jan-09 12:00N 47°35' W 003°20'4 8.4
2018-Jan-09 11:30N 47°31' W 003°19'4 8.5
2018-Jan-09 11:00N 47°27' W 003°18'3 0.4
2018-Jan-09 04:38N 47°24' W 003°17'1 7.4
2018-Jan-09 04:30N 47°25' W 003°18'4 7.2
2018-Jan-09 04:00N 47°29' W 003°19'3 6.9
2018-Jan-09 03:30N 47°32' W 003°20'4 7.5
2018-Jan-09 03:00N 47°36' W 003°21'4 7.6
2018-Jan-09 02:30N 47°40' W 003°22'4 8.0
2018-Jan-09 02:00N 47°44' W 003°22'  

Dump ship's entire track history